BIRK/RKV METAR and TAF weather

Enter ICAO airport designator
Station Type Date Time Source
BIRK METAR 2018/07/19 07:00 UTC NOAA

BIRK 190700Z 09003KT 060V120 9999 FEW026 SCT037 BKN051 10/06 Q1005


Station Type Date Time Source
BIRK Decoded METAR 2018/07/19 07:00 UTC NOAA

Reykjavik, Iceland (BIRK) 64-08N 021-54W 61M
Jul 19, 2018 - 03:00 AM EDT / 2018.07.19 0700 UTC
Wind: from the E (090 degrees) at 3 MPH (3 KT) (direction variable):0
Visibility: greater than 7 mile(s):0
Sky conditions: mostly cloudy
Temperature: 50 F (10 C)
Dew Point: 42 F (6 C)
Relative Humidity: 76%
Pressure (altimeter): 29.68 in. Hg (1005 hPa)
ob: BIRK 190700Z 09003KT 060V120 9999 FEW026 SCT037 BKN051 10/06 Q1005
cycle: 7

Station Type Date Time Source
BIRK TAF 2018/07/19 06:33 UTC NOAA

TAF BIRK 190431Z 1906/2006 07008KT 9999 SCT020 BKN035 TX14/1915Z TN09/1906Z PROB40
TEMPO 1906/1909 5000 DZ BKN012
BECMG 1910/1913 31010KT


Example: see airport list